Terminal Aerodrome Forecast
Issued by NWS Denver/Boulder, CO

Home | Current Version | Previous Version | Text Only | Print | Product List | Glossary On
Versions: 1 2 3 4 5 6 7 8 9 10 11 12 13 14 15 16 17 18 19 20 21 22 23 24 25 26 27 28 29 30 31 32 33 34 35 36 37 38 39 40 41 42 43 44 45 46 47 48 49 50
000
FTUS45 KBOU 221921 AAA
TAFDEN
TAF AMD
KDEN 221921Z 2219/2324 01014KT P6SM VCSH BKN070 BKN100
     FM222000 36013G21KT P6SM VCSH SCT050 BKN070
      TEMPO 2220/2223 2SM -SN BKN040 OVC060
     FM230000 34011KT P6SM SCT060 BKN080
     FM230400 35020G30KT P6SM SCT070 BKN090
     FM230900 35025G38KT P6SM VCSH SCT050 BKN070 PROB30 2309/2315
      2SM -SN BLSN BKN030 OVC050
     FM231900 35015G25KT P6SM SCT080 BKN140=

USA.gov is the U.S. government's official web portal to all federal, state and local government web resources and services.